createdAt,value
2022-09-24T00:04:21.232Z,47.3745
2022-09-24T00:09:22.692Z,47.99939
2022-09-24T00:14:25.147Z,48.80346
2022-09-24T00:19:26.938Z,49.30608
2022-09-24T00:24:28.449Z,49.64442
2022-09-24T00:29:30.411Z,49.32423
2022-09-24T00:34:32.321Z,50.37214
2022-09-24T00:39:34.071Z,49.39165
2022-09-24T00:44:35.586Z,50.49592
2022-09-24T00:49:37.372Z,50.18616
2022-09-24T00:54:39.142Z,52.26839
2022-09-24T00:59:41.221Z,52.50777
2022-09-24T01:04:42.621Z,52.44072
2022-09-24T01:09:44.055Z,52.7064
2022-09-24T01:14:45.847Z,52.88819
2022-09-24T01:19:47.471Z,55.38042
2022-09-24T01:24:49.107Z,53.6923
2022-09-24T01:29:51.057Z,52.66331
2022-09-24T01:34:52.650Z,54.30037
2022-09-24T01:39:54.342Z,53.07283
2022-09-24T01:44:56.292Z,55.78406
2022-09-24T01:49:57.812Z,54.70012
2022-09-24T01:54:59.486Z,52.44417
2022-09-24T02:00:01.123Z,55.04346
2022-09-24T02:05:02.909Z,55.63733
2022-09-24T02:10:04.561Z,57.00603
2022-09-24T02:15:06.163Z,57.96765
2022-09-24T02:20:09.818Z,58.19803
2022-09-24T02:25:11.311Z,59.27767
2022-09-24T02:30:12.907Z,62.01018
2022-09-24T02:35:14.558Z,61.49302
2022-09-24T02:40:16.360Z,60.17332
2022-09-24T02:45:18.263Z,62.48471
2022-09-24T02:50:19.797Z,59.87664
2022-09-24T02:55:21.557Z,62.57667
2022-09-24T03:00:23.509Z,61.92534
2022-09-24T03:05:25.080Z,60.59667
2022-09-24T03:10:26.749Z,61.43245
2022-09-24T03:15:28.201Z,62.03828
2022-09-24T03:20:29.778Z,62.57018
2022-09-24T03:25:31.177Z,61.03588
2022-09-24T03:30:33.023Z,63.66877
2022-09-24T03:35:34.500Z,62.32442
2022-09-24T03:40:36.033Z,61.67312
2022-09-24T03:45:37.649Z,61.69952
2022-09-24T03:50:39.079Z,63.48329
2022-09-24T03:55:41.251Z,64.74413
2022-09-24T04:00:43.193Z,64.84993
2022-09-24T04:05:44.909Z,64.53777
2022-09-24T04:10:46.650Z,65.5885
2022-09-24T04:15:48.447Z,65.8941
2022-09-24T04:20:50.374Z,64.60352
2022-09-24T04:25:52.192Z,64.13621
2022-09-24T04:30:54.095Z,64.97156
2022-09-24T04:35:55.838Z,67.09965
2022-09-24T04:40:57.699Z,65.58704
2022-09-24T04:45:59.731Z,65.96833
2022-09-24T04:51:01.645Z,69.09157
2022-09-24T04:56:03.443Z,67.51832
2022-09-24T05:01:05.619Z,67.79938
2022-09-24T05:06:07.544Z,67.50738
2022-09-24T05:11:09.301Z,67.30254
2022-09-24T05:16:11.249Z,65.22091
2022-09-24T05:21:13.030Z,64.91688
2022-09-24T05:26:14.768Z,65.17806
2022-09-24T05:31:16.826Z,64.02849
2022-09-24T05:36:18.580Z,62.17481
2022-09-24T05:41:20.300Z,61.38236
2022-09-24T05:46:22.181Z,61.84651
2022-09-24T05:51:23.748Z,62.34501
2022-09-24T05:56:25.195Z,62.28253
2022-09-24T06:01:26.951Z,57.34807
2022-09-24T06:06:28.450Z,58.19717
2022-09-24T06:11:29.917Z,57.24937
2022-09-24T06:16:31.616Z,54.58822
2022-09-24T06:21:33.163Z,55.29991
2022-09-24T06:26:34.601Z,54.04402
2022-09-24T06:31:36.660Z,53.73836
2022-09-24T06:36:38.274Z,52.88997
2022-09-24T06:41:40.098Z,51.54401
2022-09-24T06:46:42.136Z,49.25394
2022-09-24T06:51:43.948Z,50.04401
2022-09-24T06:56:45.556Z,48.91065
2022-09-24T07:01:47.478Z,46.53783
2022-09-24T07:06:49.122Z,45.8142
2022-09-24T07:11:50.759Z,45.54164
2022-09-24T07:16:52.390Z,45.65486
2022-09-24T07:21:54.072Z,46.75869
2022-09-24T07:26:55.713Z,43.23601
2022-09-24T07:31:57.634Z,41.74789
2022-09-24T07:36:59.350Z,41.54045
2022-09-24T07:42:00.989Z,41.89192
2022-09-24T07:47:02.648Z,38.8466
2022-09-24T07:52:04.471Z,39.96349
2022-09-24T07:57:06.191Z,37.19107
2022-09-24T08:02:08.221Z,37.77662
2022-09-24T08:07:09.971Z,38.17988
2022-09-24T08:12:11.681Z,35.92141
2022-09-24T08:17:13.401Z,36.03732
2022-09-24T08:22:15.124Z,33.36442
2022-09-24T08:27:17.574Z,34.15208
2022-09-24T08:32:19.693Z,31.89679
2022-09-24T08:37:21.414Z,31.14615
2022-09-24T08:42:23.165Z,30.87944
2022-09-24T08:47:24.646Z,31.9012
2022-09-24T08:52:26.039Z,30.28696
2022-09-24T08:57:27.770Z,26.64809
2022-09-24T09:02:29.732Z,26.85731
2022-09-24T09:07:31.490Z,24.24451
2022-09-24T09:12:33.229Z,25.16268
2022-09-24T09:17:34.982Z,22.86779
2022-09-24T09:22:36.633Z,22.98558
2022-09-24T09:27:38.413Z,22.50757
2022-09-24T09:32:40.620Z,23.17907
2022-09-24T09:37:42.403Z,21.18287
2022-09-24T09:42:43.969Z,20.90798
2022-09-24T09:47:45.361Z,20.54352
2022-09-24T09:52:46.771Z,19.94571
2022-09-24T09:57:48.286Z,20.79794
2022-09-24T10:02:50.166Z,21.05454
2022-09-24T10:07:51.755Z,20.0261
2022-09-24T10:12:53.200Z,20.71629
2022-09-24T10:17:54.699Z,21.20242
2022-09-24T10:22:56.119Z,21.28949
2022-09-24T10:27:57.621Z,20.22741
2022-09-24T10:32:59.279Z,20.84243
2022-09-24T10:38:00.716Z,21.00162
2022-09-24T10:43:02.551Z,20.29393
2022-09-24T10:48:04.204Z,20.23148
2022-09-24T10:53:05.724Z,17.64063
2022-09-24T10:58:07.259Z,18.83553
2022-09-24T11:03:09.015Z,17.71332
2022-09-24T11:08:10.447Z,18.38984
2022-09-24T11:13:11.879Z,17.45724
2022-09-24T11:18:13.458Z,18.31117
2022-09-24T11:23:14.878Z,17.34135
2022-09-24T11:28:16.544Z,18.41586
2022-09-24T11:33:22.718Z,17.03698
2022-09-24T11:38:24.746Z,17.95098
2022-09-24T11:43:26.284Z,17.86079
2022-09-24T11:48:27.873Z,17.55373
2022-09-24T11:53:29.389Z,17.57658
2022-09-24T11:58:30.901Z,17.75723
2022-09-24T12:03:32.888Z,18.15005
2022-09-24T12:08:34.650Z,18.96957
2022-09-24T12:13:36.204Z,17.81197
2022-09-24T12:18:38.004Z,17.6595
2022-09-24T12:23:39.778Z,19.41904
2022-09-24T12:28:41.524Z,18.95995
2022-09-24T12:33:43.479Z,18.41521
2022-09-24T12:38:45.222Z,18.44969
2022-09-24T12:43:46.959Z,18.80908
2022-09-24T12:48:48.884Z,18.92831
2022-09-24T12:53:50.643Z,20.5095
2022-09-24T12:58:52.280Z,20.51081
2022-09-24T13:03:53.993Z,20.23751
2022-09-24T13:08:55.916Z,20.60047
2022-09-24T13:13:57.626Z,20.59891
2022-09-24T13:18:59.441Z,20.75791
2022-09-24T13:24:01.217Z,20.40483
2022-09-24T13:29:02.974Z,19.51871
2022-09-24T13:34:05.014Z,20.45263
2022-09-24T13:39:06.876Z,19.99993
2022-09-24T13:44:08.711Z,20.70907
2022-09-24T13:49:10.576Z,19.84176
2022-09-24T13:54:12.344Z,20.41639
2022-09-24T13:59:14.081Z,20.82619
2022-09-24T14:04:15.751Z,20.723
2022-09-24T14:09:17.173Z,20.82716
2022-09-24T14:14:18.742Z,20.48545
2022-09-24T14:19:20.278Z,20.61545
2022-09-24T14:24:21.829Z,21.6533
2022-09-24T14:29:23.560Z,20.9312
2022-09-24T14:34:25.304Z,20.93218
2022-09-24T14:39:26.776Z,21.24944
2022-09-24T14:44:28.476Z,22.475
2022-09-24T14:49:30.127Z,22.12859
2022-09-24T14:54:31.677Z,22.7887
2022-09-24T14:59:33.246Z,22.15319
2022-09-24T15:04:34.969Z,22.2902
2022-09-24T15:09:36.486Z,22.74052
2022-09-24T15:14:37.927Z,23.58551
2022-09-24T15:19:39.461Z,22.91319
2022-09-24T15:24:41.018Z,23.03769
2022-09-24T15:29:42.484Z,22.5466
2022-09-24T15:34:44.313Z,23.11711
2022-09-24T15:39:45.749Z,23.01292
2022-09-24T15:44:47.274Z,24.48974
2022-09-24T15:49:48.732Z,23.78004
2022-09-24T15:54:50.389Z,24.08766
2022-09-24T15:59:52.158Z,26.57998
2022-09-24T16:04:53.852Z,25.41721
2022-09-24T16:09:55.326Z,24.77577
2022-09-24T16:14:56.937Z,25.07165
2022-09-24T16:19:58.745Z,25.04706
2022-09-24T16:25:00.307Z,25.39112
2022-09-24T16:30:02.085Z,25.64085
2022-09-24T16:35:04.035Z,25.95768
2022-09-24T16:40:05.805Z,26.5612
2022-09-24T16:45:07.542Z,27.02816
2022-09-24T16:50:09.301Z,26.88128
2022-09-24T16:55:11.041Z,26.38354
2022-09-24T17:00:12.933Z,26.69511
2022-09-24T17:05:14.905Z,27.23359
2022-09-24T17:10:16.655Z,27.7201
2022-09-24T17:15:18.410Z,27.86099
2022-09-24T17:20:20.155Z,27.79628
2022-09-24T17:25:21.928Z,28.42903
2022-09-24T17:30:23.658Z,28.36402
2022-09-24T17:35:25.745Z,28.58547
2022-09-24T17:40:27.467Z,29.44572
2022-09-24T17:45:28.999Z,29.08748
2022-09-24T17:50:30.494Z,30.80409
2022-09-24T17:55:32.063Z,30.794
2022-09-24T18:00:33.839Z,30.35639
2022-09-24T18:05:35.506Z,31.28642
2022-09-24T18:10:37.012Z,31.27129
2022-09-24T18:15:38.560Z,32.24645
2022-09-24T18:20:40.136Z,33.06433
2022-09-24T18:25:41.754Z,32.35112
2022-09-24T18:30:43.435Z,32.42408
2022-09-24T18:35:45.188Z,34.01966
2022-09-24T18:40:46.905Z,34.15356
2022-09-24T18:45:48.674Z,33.98896
2022-09-24T18:50:50.591Z,33.98688
2022-09-24T18:55:52.422Z,34.78851
2022-09-24T19:00:54.039Z,34.56898
2022-09-24T19:05:55.878Z,34.98923
2022-09-24T19:10:57.682Z,36.21985
2022-09-24T19:15:59.640Z,36.2134
2022-09-24T19:21:01.732Z,36.41514
2022-09-24T19:26:03.541Z,37.04745
2022-09-24T19:31:05.353Z,37.01025
2022-09-24T19:36:07.327Z,37.31276
2022-09-24T19:41:09.070Z,37.10055
2022-09-24T19:46:10.945Z,38.18728
2022-09-24T19:51:12.853Z,38.00186
2022-09-24T19:56:14.950Z,37.31805
2022-09-24T20:01:17.704Z,38.35182
2022-09-24T20:06:21.094Z,39.15017
2022-09-24T20:11:23.348Z,39.7371
2022-09-24T20:16:25.122Z,39.86269
2022-09-24T20:21:26.873Z,40.1933
2022-09-24T20:26:28.344Z,39.22718
2022-09-24T20:31:30.082Z,38.92716
2022-09-24T20:36:32.330Z,39.65274
2022-09-24T20:41:33.963Z,39.63448
2022-09-24T20:46:35.622Z,41.98706
2022-09-24T20:51:37.245Z,43.42015
2022-09-24T20:56:38.755Z,43.69093
2022-09-24T21:01:40.257Z,44.62865
2022-09-24T21:06:42.220Z,44.51471
2022-09-24T21:11:43.648Z,45.79421
2022-09-24T21:16:45.384Z,46.85922
2022-09-24T21:21:47.313Z,46.63739
2022-09-24T21:26:49.022Z,47.88551
2022-09-24T21:31:50.739Z,47.80218
2022-09-24T21:36:52.592Z,48.55494
2022-09-24T21:41:54.272Z,48.05848
2022-09-24T21:46:56.014Z,48.9657
2022-09-24T21:51:57.751Z,49.70308
2022-09-24T21:56:59.553Z,50.05733
2022-09-24T22:02:01.226Z,50.29192
2022-09-24T22:07:02.937Z,51.55845
2022-09-24T22:12:04.406Z,52.21774
2022-09-24T22:17:06.003Z,52.72892
2022-09-24T22:22:07.679Z,52.0625
2022-09-24T22:27:09.131Z,51.94088
2022-09-24T22:32:10.658Z,51.96217
2022-09-24T22:37:12.329Z,53.31966
2022-09-24T22:42:13.770Z,52.807
2022-09-24T22:47:15.229Z,54.19559
2022-09-24T22:52:16.871Z,54.56746
2022-09-24T22:57:18.277Z,54.39839
2022-09-24T23:02:19.758Z,54.87908
2022-09-24T23:07:21.382Z,54.95299
2022-09-24T23:12:22.812Z,56.42399
2022-09-24T23:17:24.366Z,55.95774
2022-09-24T23:22:25.895Z,55.49386
2022-09-24T23:27:27.372Z,56.25426
2022-09-24T23:32:28.814Z,58.37957
2022-09-24T23:37:30.466Z,58.66976
2022-09-24T23:42:32.208Z,57.95942
2022-09-24T23:47:36.145Z,58.88279
2022-09-24T23:52:37.957Z,58.09325
2022-09-24T23:57:39.555Z,58.36803
